sensor_id;sensor_type;location;lat;lon;timestamp;P1;durP1;ratioP1;P2;durP2;ratioP2
61962;SDS011;47927;42.646;23.096;2023-08-01T00:00:03;2.92;;;1.63;;
61962;SDS011;47927;42.646;23.096;2023-08-01T00:02:36;5.82;;;2.08;;
61962;SDS011;47927;42.646;23.096;2023-08-01T00:05:03;3.25;;;1.63;;
61962;SDS011;47927;42.646;23.096;2023-08-01T00:07:29;3.95;;;1.80;;
61962;SDS011;47927;42.646;23.096;2023-08-01T00:09:54;2.95;;;1.70;;
61962;SDS011;47927;42.646;23.096;2023-08-01T00:12:20;2.53;;;1.42;;
61962;SDS011;47927;42.646;23.096;2023-08-01T00:14:46;3.40;;;2.00;;
61962;SDS011;47927;42.646;23.096;2023-08-01T00:17:11;3.80;;;1.73;;
61962;SDS011;47927;42.646;23.096;2023-08-01T00:19:37;2.90;;;1.90;;
61962;SDS011;47927;42.646;23.096;2023-08-01T00:22:02;3.40;;;1.90;;
61962;SDS011;47927;42.646;23.096;2023-08-01T00:24:28;3.50;;;1.88;;
61962;SDS011;47927;42.646;23.096;2023-08-01T00:26:53;2.90;;;1.73;;
61962;SDS011;47927;42.646;23.096;2023-08-01T00:29:21;7.43;;;2.83;;
61962;SDS011;47927;42.646;23.096;2023-08-01T00:31:47;4.05;;;2.00;;
61962;SDS011;47927;42.646;23.096;2023-08-01T00:34:12;3.47;;;1.70;;
61962;SDS011;47927;42.646;23.096;2023-08-01T00:36:38;3.28;;;1.67;;
61962;SDS011;47927;42.646;23.096;2023-08-01T00:39:04;3.03;;;1.73;;
61962;SDS011;47927;42.646;23.096;2023-08-01T00:41:29;3.63;;;1.88;;
61962;SDS011;47927;42.646;23.096;2023-08-01T00:43:55;3.17;;;1.83;;
61962;SDS011;47927;42.646;23.096;2023-08-01T00:46:20;3.20;;;1.70;;
61962;SDS011;47927;42.646;23.096;2023-08-01T00:48:46;3.85;;;2.15;;
61962;SDS011;47927;42.646;23.096;2023-08-01T00:51:12;3.13;;;1.60;;
61962;SDS011;47927;42.646;23.096;2023-08-01T00:53:39;2.88;;;1.73;;
61962;SDS011;47927;42.646;23.096;2023-08-01T00:56:05;4.55;;;2.17;;
61962;SDS011;47927;42.646;23.096;2023-08-01T00:58:31;4.30;;;1.90;;
61962;SDS011;47927;42.646;23.096;2023-08-01T01:00:56;4.78;;;2.03;;
61962;SDS011;47927;42.646;23.096;2023-08-01T01:03:22;3.15;;;1.77;;
61962;SDS011;47927;42.646;23.096;2023-08-01T01:06:02;3.28;;;1.98;;
61962;SDS011;47927;42.646;23.096;2023-08-01T01:08:37;2.97;;;1.83;;
61962;SDS011;47927;42.646;23.096;2023-08-01T01:11:02;2.58;;;1.60;;
61962;SDS011;47927;42.646;23.096;2023-08-01T01:13:29;3.10;;;1.88;;
61962;SDS011;47927;42.646;23.096;2023-08-01T01:15:55;2.80;;;1.80;;
61962;SDS011;47927;42.646;23.096;2023-08-01T01:18:20;2.88;;;1.70;;
61962;SDS011;47927;42.646;23.096;2023-08-01T01:20:46;3.70;;;1.92;;
61962;SDS011;47927;42.646;23.096;2023-08-01T01:23:11;4.57;;;2.00;;
61962;SDS011;47927;42.646;23.096;2023-08-01T01:25:37;2.88;;;1.63;;
61962;SDS011;47927;42.646;23.096;2023-08-01T01:28:04;3.13;;;1.70;;
61962;SDS011;47927;42.646;23.096;2023-08-01T01:30:31;3.90;;;1.98;;
61962;SDS011;47927;42.646;23.096;2023-08-01T01:33:01;4.20;;;1.70;;
61962;SDS011;47927;42.646;23.096;2023-08-01T01:35:27;5.30;;;1.80;;
61962;SDS011;47927;42.646;23.096;2023-08-01T01:37:52;2.95;;;1.60;;
61962;SDS011;47927;42.646;23.096;2023-08-01T01:40:18;3.35;;;1.85;;
61962;SDS011;47927;42.646;23.096;2023-08-01T01:42:44;2.75;;;1.80;;
61962;SDS011;47927;42.646;23.096;2023-08-01T01:45:09;3.97;;;1.95;;
61962;SDS011;47927;42.646;23.096;2023-08-01T01:47:36;3.88;;;1.80;;
61962;SDS011;47927;42.646;23.096;2023-08-01T01:50:01;3.42;;;1.90;;
61962;SDS011;47927;42.646;23.096;2023-08-01T01:52:27;5.57;;;1.95;;
61962;SDS011;47927;42.646;23.096;2023-08-01T01:54:52;3.30;;;1.83;;
61962;SDS011;47927;42.646;23.096;2023-08-01T01:57:18;5.22;;;1.98;;
61962;SDS011;47927;42.646;23.096;2023-08-01T01:59:43;4.80;;;1.88;;
61962;SDS011;47927;42.646;23.096;2023-08-01T02:02:09;3.08;;;1.67;;
61962;SDS011;47927;42.646;23.096;2023-08-01T02:04:35;3.70;;;1.85;;
61962;SDS011;47927;42.646;23.096;2023-08-01T02:07:00;5.30;;;2.00;;
61962;SDS011;47927;42.646;23.096;2023-08-01T02:09:26;3.38;;;1.83;;
61962;SDS011;47927;42.646;23.096;2023-08-01T02:11:51;4.95;;;2.17;;
61962;SDS011;47927;42.646;23.096;2023-08-01T02:14:17;5.18;;;1.60;;
61962;SDS011;47927;42.646;23.096;2023-08-01T02:16:43;4.43;;;2.10;;
61962;SDS011;47927;42.646;23.096;2023-08-01T02:19:09;3.40;;;1.85;;
61962;SDS011;47927;42.646;23.096;2023-08-01T02:21:36;3.83;;;1.70;;
61962;SDS011;47927;42.646;23.096;2023-08-01T02:24:01;5.43;;;1.63;;
61962;SDS011;47927;42.646;23.096;2023-08-01T02:26:28;3.30;;;1.90;;
61962;SDS011;47927;42.646;23.096;2023-08-01T02:28:54;3.63;;;2.15;;
61962;SDS011;47927;42.646;23.096;2023-08-01T02:31:20;3.28;;;1.77;;
61962;SDS011;47927;42.646;23.096;2023-08-01T02:33:46;3.03;;;1.70;;
61962;SDS011;47927;42.646;23.096;2023-08-01T02:36:11;4.85;;;1.80;;
61962;SDS011;47927;42.646;23.096;2023-08-01T02:38:37;2.90;;;1.80;;
61962;SDS011;47927;42.646;23.096;2023-08-01T02:41:21;4.30;;;1.92;;
61962;SDS011;47927;42.646;23.096;2023-08-01T02:43:46;3.75;;;1.85;;
61962;SDS011;47927;42.646;23.096;2023-08-01T02:46:12;2.38;;;1.45;;
61962;SDS011;47927;42.646;23.096;2023-08-01T02:48:37;5.85;;;1.75;;
61962;SDS011;47927;42.646;23.096;2023-08-01T02:51:03;3.50;;;1.58;;
61962;SDS011;47927;42.646;23.096;2023-08-01T02:53:28;5.70;;;2.08;;
61962;SDS011;47927;42.646;23.096;2023-08-01T02:55:54;3.13;;;1.95;;
61962;SDS011;47927;42.646;23.096;2023-08-01T02:58:37;3.13;;;1.75;;
61962;SDS011;47927;42.646;23.096;2023-08-01T03:01:07;4.07;;;1.88;;
61962;SDS011;47927;42.646;23.096;2023-08-01T03:03:52;5.13;;;1.85;;
61962;SDS011;47927;42.646;23.096;2023-08-01T03:06:18;3.28;;;1.70;;
61962;SDS011;47927;42.646;23.096;2023-08-01T03:08:44;3.00;;;1.73;;
61962;SDS011;47927;42.646;23.096;2023-08-01T03:11:10;6.22;;;1.88;;
61962;SDS011;47927;42.646;23.096;2023-08-01T03:13:36;3.03;;;2.00;;
61962;SDS011;47927;42.646;23.096;2023-08-01T03:16:01;3.95;;;1.77;;
61962;SDS011;47927;42.646;23.096;2023-08-01T03:18:29;5.07;;;1.80;;
61962;SDS011;47927;42.646;23.096;2023-08-01T03:21:13;4.25;;;1.77;;
61962;SDS011;47927;42.646;23.096;2023-08-01T03:23:39;4.63;;;1.92;;
61962;SDS011;47927;42.646;23.096;2023-08-01T03:26:04;4.43;;;2.00;;
61962;SDS011;47927;42.646;23.096;2023-08-01T03:28:48;3.17;;;1.95;;
61962;SDS011;47927;42.646;23.096;2023-08-01T03:31:14;2.92;;;1.73;;
61962;SDS011;47927;42.646;23.096;2023-08-01T03:33:40;3.92;;;1.90;;
61962;SDS011;47927;42.646;23.096;2023-08-01T03:36:07;3.13;;;1.75;;
61962;SDS011;47927;42.646;23.096;2023-08-01T03:38:32;4.20;;;2.10;;
61962;SDS011;47927;42.646;23.096;2023-08-01T03:40:58;3.45;;;2.05;;
61962;SDS011;47927;42.646;23.096;2023-08-01T03:43:23;3.40;;;1.80;;
61962;SDS011;47927;42.646;23.096;2023-08-01T03:45:49;4.05;;;1.90;;
61962;SDS011;47927;42.646;23.096;2023-08-01T03:48:15;3.00;;;1.75;;
61962;SDS011;47927;42.646;23.096;2023-08-01T03:50:40;3.50;;;1.88;;
61962;SDS011;47927;42.646;23.096;2023-08-01T03:53:06;3.45;;;1.90;;
61962;SDS011;47927;42.646;23.096;2023-08-01T03:55:32;5.05;;;2.15;;
61962;SDS011;47927;42.646;23.096;2023-08-01T03:57:58;3.78;;;2.03;;
61962;SDS011;47927;42.646;23.096;2023-08-01T04:00:23;4.32;;;2.10;;
61962;SDS011;47927;42.646;23.096;2023-08-01T04:02:50;4.43;;;1.80;;
61962;SDS011;47927;42.646;23.096;2023-08-01T04:05:17;4.35;;;1.90;;
61962;SDS011;47927;42.646;23.096;2023-08-01T04:07:43;5.35;;;2.05;;
61962;SDS011;47927;42.646;23.096;2023-08-01T04:10:08;3.10;;;1.70;;
61962;SDS011;47927;42.646;23.096;2023-08-01T04:12:34;5.18;;;2.15;;
61962;SDS011;47927;42.646;23.096;2023-08-01T04:15:18;3.30;;;2.03;;
61962;SDS011;47927;42.646;23.096;2023-08-01T04:17:44;4.93;;;2.28;;
61962;SDS011;47927;42.646;23.096;2023-08-01T04:20:10;3.70;;;2.10;;
61962;SDS011;47927;42.646;23.096;2023-08-01T04:22:36;8.07;;;2.85;;
61962;SDS011;47927;42.646;23.096;2023-08-01T04:25:01;3.92;;;1.73;;
61962;SDS011;47927;42.646;23.096;2023-08-01T04:27:27;3.55;;;1.80;;
61962;SDS011;47927;42.646;23.096;2023-08-01T04:29:53;3.13;;;1.73;;
61962;SDS011;47927;42.646;23.096;2023-08-01T04:32:20;3.60;;;1.63;;
61962;SDS011;47927;42.646;23.096;2023-08-01T04:34:45;3.45;;;1.75;;
61962;SDS011;47927;42.646;23.096;2023-08-01T04:37:11;5.18;;;2.08;;
61962;SDS011;47927;42.646;23.096;2023-08-01T04:39:36;8.38;;;2.50;;
61962;SDS011;47927;42.646;23.096;2023-08-01T04:42:02;10.02;;;2.70;;
61962;SDS011;47927;42.646;23.096;2023-08-01T04:44:28;8.57;;;2.75;;
61962;SDS011;47927;42.646;23.096;2023-08-01T04:46:54;3.90;;;2.10;;
61962;SDS011;47927;42.646;23.096;2023-08-01T04:49:20;24.67;;;3.15;;
61962;SDS011;47927;42.646;23.096;2023-08-01T04:51:45;3.53;;;2.10;;
61962;SDS011;47927;42.646;23.096;2023-08-01T04:54:12;7.70;;;2.50;;
61962;SDS011;47927;42.646;23.096;2023-08-01T04:56:38;9.02;;;3.63;;
61962;SDS011;47927;42.646;23.096;2023-08-01T04:59:03;7.97;;;4.10;;
61962;SDS011;47927;42.646;23.096;2023-08-01T05:01:29;9.18;;;3.97;;
61962;SDS011;47927;42.646;23.096;2023-08-01T05:03:55;7.50;;;3.42;;
61962;SDS011;47927;42.646;23.096;2023-08-01T05:06:21;8.57;;;3.80;;
61962;SDS011;47927;42.646;23.096;2023-08-01T05:08:46;7.85;;;3.90;;
61962;SDS011;47927;42.646;23.096;2023-08-01T05:11:11;7.53;;;4.07;;
61962;SDS011;47927;42.646;23.096;2023-08-01T05:13:37;5.95;;;3.55;;
61962;SDS011;47927;42.646;23.096;2023-08-01T05:16:03;8.05;;;3.60;;
61962;SDS011;47927;42.646;23.096;2023-08-01T05:18:29;10.70;;;3.97;;
61962;SDS011;47927;42.646;23.096;2023-08-01T05:20:54;7.57;;;3.15;;
61962;SDS011;47927;42.646;23.096;2023-08-01T05:23:20;6.22;;;3.40;;
61962;SDS011;47927;42.646;23.096;2023-08-01T05:25:45;4.78;;;2.88;;
61962;SDS011;47927;42.646;23.096;2023-08-01T05:28:11;7.43;;;3.25;;
61962;SDS011;47927;42.646;23.096;2023-08-01T05:30:37;8.00;;;3.97;;
61962;SDS011;47927;42.646;23.096;2023-08-01T05:33:02;5.22;;;2.50;;
61962;SDS011;47927;42.646;23.096;2023-08-01T05:35:28;6.35;;;3.95;;
61962;SDS011;47927;42.646;23.096;2023-08-01T05:37:54;6.00;;;4.00;;
61962;SDS011;47927;42.646;23.096;2023-08-01T05:40:19;8.43;;;3.60;;
61962;SDS011;47927;42.646;23.096;2023-08-01T05:42:45;5.50;;;2.85;;
61962;SDS011;47927;42.646;23.096;2023-08-01T05:45:10;6.78;;;3.05;;
61962;SDS011;47927;42.646;23.096;2023-08-01T05:47:36;7.85;;;3.10;;
61962;SDS011;47927;42.646;23.096;2023-08-01T05:50:02;8.07;;;3.42;;
61962;SDS011;47927;42.646;23.096;2023-08-01T05:52:29;7.03;;;3.60;;
61962;SDS011;47927;42.646;23.096;2023-08-01T05:54:55;8.48;;;3.70;;
61962;SDS011;47927;42.646;23.096;2023-08-01T05:57:20;6.78;;;3.47;;
61962;SDS011;47927;42.646;23.096;2023-08-01T05:59:46;4.88;;;3.00;;
61962;SDS011;47927;42.646;23.096;2023-08-01T06:02:11;8.85;;;3.35;;
61962;SDS011;47927;42.646;23.096;2023-08-01T06:04:55;5.82;;;4.00;;
61962;SDS011;47927;42.646;23.096;2023-08-01T06:07:21;10.02;;;4.05;;
61962;SDS011;47927;42.646;23.096;2023-08-01T06:09:48;8.55;;;3.72;;
61962;SDS011;47927;42.646;23.096;2023-08-01T06:12:17;10.63;;;3.72;;
61962;SDS011;47927;42.646;23.096;2023-08-01T06:14:43;7.40;;;3.67;;
61962;SDS011;47927;42.646;23.096;2023-08-01T06:17:09;8.57;;;4.00;;
61962;SDS011;47927;42.646;23.096;2023-08-01T06:19:35;8.60;;;3.65;;
61962;SDS011;47927;42.646;23.096;2023-08-01T06:22:00;10.88;;;4.63;;
61962;SDS011;47927;42.646;23.096;2023-08-01T06:24:26;12.57;;;4.00;;
61962;SDS011;47927;42.646;23.096;2023-08-01T06:26:51;9.38;;;4.07;;
61962;SDS011;47927;42.646;23.096;2023-08-01T06:29:17;16.95;;;5.50;;
61962;SDS011;47927;42.646;23.096;2023-08-01T06:31:42;14.73;;;5.75;;
61962;SDS011;47927;42.646;23.096;2023-08-01T06:34:08;13.52;;;5.95;;
61962;SDS011;47927;42.646;23.096;2023-08-01T06:36:33;18.08;;;6.13;;
61962;SDS011;47927;42.646;23.096;2023-08-01T06:38:59;18.23;;;6.55;;
61962;SDS011;47927;42.646;23.096;2023-08-01T06:41:25;16.92;;;6.63;;
61962;SDS011;47927;42.646;23.096;2023-08-01T06:43:51;19.83;;;6.28;;
61962;SDS011;47927;42.646;23.096;2023-08-01T06:46:16;16.25;;;5.53;;
61962;SDS011;47927;42.646;23.096;2023-08-01T06:48:42;15.05;;;6.25;;
61962;SDS011;47927;42.646;23.096;2023-08-01T06:51:07;12.43;;;5.18;;
61962;SDS011;47927;42.646;23.096;2023-08-01T06:53:33;14.07;;;4.72;;
61962;SDS011;47927;42.646;23.096;2023-08-01T06:55:58;11.10;;;4.30;;
61962;SDS011;47927;42.646;23.096;2023-08-01T06:58:24;13.65;;;4.55;;
61962;SDS011;47927;42.646;23.096;2023-08-01T07:00:49;18.80;;;4.00;;
61962;SDS011;47927;42.646;23.096;2023-08-01T07:03:15;18.00;;;4.45;;
61962;SDS011;47927;42.646;23.096;2023-08-01T07:05:40;10.43;;;3.22;;
61962;SDS011;47927;42.646;23.096;2023-08-01T07:08:06;18.17;;;4.18;;
61962;SDS011;47927;42.646;23.096;2023-08-01T07:10:34;17.35;;;3.45;;
61962;SDS011;47927;42.646;23.096;2023-08-01T07:13:00;13.80;;;3.25;;
61962;SDS011;47927;42.646;23.096;2023-08-01T07:15:29;12.60;;;3.53;;
61962;SDS011;47927;42.646;23.096;2023-08-01T07:17:57;10.55;;;3.00;;
61962;SDS011;47927;42.646;23.096;2023-08-01T07:20:23;17.52;;;3.05;;
61962;SDS011;47927;42.646;23.096;2023-08-01T07:22:48;16.58;;;3.40;;
61962;SDS011;47927;42.646;23.096;2023-08-01T07:25:14;6.75;;;2.80;;
61962;SDS011;47927;42.646;23.096;2023-08-01T07:27:41;9.35;;;2.75;;
61962;SDS011;47927;42.646;23.096;2023-08-01T07:30:07;10.50;;;2.53;;
61962;SDS011;47927;42.646;23.096;2023-08-01T07:32:34;6.45;;;2.20;;
61962;SDS011;47927;42.646;23.096;2023-08-01T07:35:00;7.50;;;2.40;;
61962;SDS011;47927;42.646;23.096;2023-08-01T07:37:25;6.00;;;2.30;;
61962;SDS011;47927;42.646;23.096;2023-08-01T07:39:53;8.43;;;2.22;;
61962;SDS011;47927;42.646;23.096;2023-08-01T07:42:20;10.57;;;2.80;;
61962;SDS011;47927;42.646;23.096;2023-08-01T07:44:45;6.20;;;2.33;;
61962;SDS011;47927;42.646;23.096;2023-08-01T07:47:11;13.07;;;2.90;;
61962;SDS011;47927;42.646;23.096;2023-08-01T07:49:37;6.95;;;2.85;;
61962;SDS011;47927;42.646;23.096;2023-08-01T07:52:02;5.38;;;2.50;;
61962;SDS011;47927;42.646;23.096;2023-08-01T07:54:28;6.40;;;2.55;;
61962;SDS011;47927;42.646;23.096;2023-08-01T07:56:53;10.32;;;2.83;;
61962;SDS011;47927;42.646;23.096;2023-08-01T07:59:19;4.97;;;2.33;;
61962;SDS011;47927;42.646;23.096;2023-08-01T08:01:44;5.60;;;2.70;;
61962;SDS011;47927;42.646;23.096;2023-08-01T08:04:10;7.75;;;2.55;;
61962;SDS011;47927;42.646;23.096;2023-08-01T08:06:36;9.02;;;2.53;;
61962;SDS011;47927;42.646;23.096;2023-08-01T08:09:02;6.20;;;2.50;;
61962;SDS011;47927;42.646;23.096;2023-08-01T08:11:28;8.88;;;2.80;;
61962;SDS011;47927;42.646;23.096;2023-08-01T08:13:53;10.52;;;2.80;;
61962;SDS011;47927;42.646;23.096;2023-08-01T08:16:19;4.57;;;2.70;;
61962;SDS011;47927;42.646;23.096;2023-08-01T08:18:44;7.75;;;2.20;;
61962;SDS011;47927;42.646;23.096;2023-08-01T08:21:10;4.15;;;2.33;;
61962;SDS011;47927;42.646;23.096;2023-08-01T08:23:35;4.47;;;2.13;;
61962;SDS011;47927;42.646;23.096;2023-08-01T08:26:01;8.20;;;2.20;;
61962;SDS011;47927;42.646;23.096;2023-08-01T08:28:28;10.55;;;2.40;;
61962;SDS011;47927;42.646;23.096;2023-08-01T08:30:55;7.35;;;2.22;;
61962;SDS011;47927;42.646;23.096;2023-08-01T08:33:20;5.38;;;1.88;;
61962;SDS011;47927;42.646;23.096;2023-08-01T08:35:49;3.70;;;1.95;;
61962;SDS011;47927;42.646;23.096;2023-08-01T08:38:16;4.22;;;1.67;;
61962;SDS011;47927;42.646;23.096;2023-08-01T08:40:43;3.58;;;2.30;;
61962;SDS011;47927;42.646;23.096;2023-08-01T08:43:20;6.97;;;2.28;;
61962;SDS011;47927;42.646;23.096;2023-08-01T08:45:46;7.70;;;2.45;;
61962;SDS011;47927;42.646;23.096;2023-08-01T08:48:16;7.28;;;2.35;;
61962;SDS011;47927;42.646;23.096;2023-08-01T08:50:44;5.55;;;1.90;;
61962;SDS011;47927;42.646;23.096;2023-08-01T08:53:11;3.13;;;1.98;;
61962;SDS011;47927;42.646;23.096;2023-08-01T08:55:38;3.58;;;1.90;;
61962;SDS011;47927;42.646;23.096;2023-08-01T08:58:05;9.15;;;2.20;;
61962;SDS011;47927;42.646;23.096;2023-08-01T09:00:31;4.60;;;2.13;;
61962;SDS011;47927;42.646;23.096;2023-08-01T09:02:57;3.40;;;2.03;;
61962;SDS011;47927;42.646;23.096;2023-08-01T09:05:24;4.30;;;2.10;;
61962;SDS011;47927;42.646;23.096;2023-08-01T09:07:53;8.52;;;2.17;;
61962;SDS011;47927;42.646;23.096;2023-08-01T09:10:21;6.07;;;2.50;;
61962;SDS011;47927;42.646;23.096;2023-08-01T09:12:47;6.47;;;2.47;;
61962;SDS011;47927;42.646;23.096;2023-08-01T09:15:13;9.50;;;2.88;;
61962;SDS011;47927;42.646;23.096;2023-08-01T09:17:49;9.02;;;3.03;;
61962;SDS011;47927;42.646;23.096;2023-08-01T09:20:15;10.10;;;3.10;;
61962;SDS011;47927;42.646;23.096;2023-08-01T09:22:44;5.32;;;2.20;;
61962;SDS011;47927;42.646;23.096;2023-08-01T09:25:11;5.53;;;2.10;;
61962;SDS011;47927;42.646;23.096;2023-08-01T09:27:38;4.03;;;2.05;;
61962;SDS011;47927;42.646;23.096;2023-08-01T09:30:10;5.32;;;2.10;;
61962;SDS011;47927;42.646;23.096;2023-08-01T09:32:38;7.10;;;2.30;;
61962;SDS011;47927;42.646;23.096;2023-08-01T09:35:04;8.60;;;2.83;;
61962;SDS011;47927;42.646;23.096;2023-08-01T09:37:40;5.03;;;2.17;;
61962;SDS011;47927;42.646;23.096;2023-08-01T09:40:07;5.15;;;2.90;;
61962;SDS011;47927;42.646;23.096;2023-08-01T09:42:45;11.23;;;3.17;;
61962;SDS011;47927;42.646;23.096;2023-08-01T09:47:38;4.73;;;2.30;;
61962;SDS011;47927;42.646;23.096;2023-08-01T09:50:04;5.05;;;2.58;;
61962;SDS011;47927;42.646;23.096;2023-08-01T09:52:30;9.88;;;2.65;;
61962;SDS011;47927;42.646;23.096;2023-08-01T09:54:56;6.82;;;2.70;;
61962;SDS011;47927;42.646;23.096;2023-08-01T09:57:21;7.93;;;2.50;;
61962;SDS011;47927;42.646;23.096;2023-08-01T09:59:47;7.55;;;3.10;;
61962;SDS011;47927;42.646;23.096;2023-08-01T10:02:14;7.20;;;2.42;;
61962;SDS011;47927;42.646;23.096;2023-08-01T10:04:41;4.22;;;2.00;;
61962;SDS011;47927;42.646;23.096;2023-08-01T10:07:11;5.95;;;3.00;;
61962;SDS011;47927;42.646;23.096;2023-08-01T10:09:37;4.63;;;1.95;;
61962;SDS011;47927;42.646;23.096;2023-08-01T10:12:03;4.22;;;2.15;;
61962;SDS011;47927;42.646;23.096;2023-08-01T10:14:30;4.43;;;1.75;;
61962;SDS011;47927;42.646;23.096;2023-08-01T10:16:57;5.55;;;2.25;;
61962;SDS011;47927;42.646;23.096;2023-08-01T10:19:23;4.97;;;2.25;;
61962;SDS011;47927;42.646;23.096;2023-08-01T10:21:50;3.08;;;1.83;;
61962;SDS011;47927;42.646;23.096;2023-08-01T10:24:17;3.28;;;1.80;;
61962;SDS011;47927;42.646;23.096;2023-08-01T10:26:46;4.78;;;1.73;;
61962;SDS011;47927;42.646;23.096;2023-08-01T10:31:37;3.03;;;1.83;;
61962;SDS011;47927;42.646;23.096;2023-08-01T10:34:04;5.13;;;1.70;;
61962;SDS011;47927;42.646;23.096;2023-08-01T10:36:31;6.50;;;1.80;;
61962;SDS011;47927;42.646;23.096;2023-08-01T10:38:58;2.60;;;1.80;;
61962;SDS011;47927;42.646;23.096;2023-08-01T10:41:27;3.10;;;1.52;;
61962;SDS011;47927;42.646;23.096;2023-08-01T10:49:32;2.58;;;1.80;;
61962;SDS011;47927;42.646;23.096;2023-08-01T10:52:00;2.35;;;1.60;;
61962;SDS011;47927;42.646;23.096;2023-08-01T10:54:26;4.57;;;1.70;;
61962;SDS011;47927;42.646;23.096;2023-08-01T10:56:53;2.83;;;1.60;;
61962;SDS011;47927;42.646;23.096;2023-08-01T10:59:21;4.60;;;2.15;;
61962;SDS011;47927;42.646;23.096;2023-08-01T11:01:50;4.05;;;2.05;;
61962;SDS011;47927;42.646;23.096;2023-08-01T11:04:20;3.42;;;1.90;;
61962;SDS011;47927;42.646;23.096;2023-08-01T11:06:48;4.22;;;1.98;;
61962;SDS011;47927;42.646;23.096;2023-08-01T11:09:21;4.45;;;2.08;;
61962;SDS011;47927;42.646;23.096;2023-08-01T11:11:51;3.83;;;1.63;;
61962;SDS011;47927;42.646;23.096;2023-08-01T11:14:21;4.75;;;1.58;;
61962;SDS011;47927;42.646;23.096;2023-08-01T11:16:50;2.83;;;1.80;;
61962;SDS011;47927;42.646;23.096;2023-08-01T11:19:19;5.93;;;1.97;;
61962;SDS011;47927;42.646;23.096;2023-08-01T11:21:49;3.58;;;1.98;;
61962;SDS011;47927;42.646;23.096;2023-08-01T11:24:17;4.47;;;2.00;;
61962;SDS011;47927;42.646;23.096;2023-08-01T11:27:02;3.88;;;1.80;;
61962;SDS011;47927;42.646;23.096;2023-08-01T11:29:28;4.50;;;1.80;;
61962;SDS011;47927;42.646;23.096;2023-08-01T11:31:54;3.05;;;1.77;;
61962;SDS011;47927;42.646;23.096;2023-08-01T11:34:23;4.60;;;1.58;;
61962;SDS011;47927;42.646;23.096;2023-08-01T11:36:49;6.38;;;1.60;;
61962;SDS011;47927;42.646;23.096;2023-08-01T11:39:15;3.72;;;1.75;;
61962;SDS011;47927;42.646;23.096;2023-08-01T11:41:42;7.07;;;2.28;;
61962;SDS011;47927;42.646;23.096;2023-08-01T11:44:08;3.65;;;1.85;;
61962;SDS011;47927;42.646;23.096;2023-08-01T11:46:36;3.78;;;1.70;;
61962;SDS011;47927;42.646;23.096;2023-08-01T11:49:06;2.88;;;1.63;;
61962;SDS011;47927;42.646;23.096;2023-08-01T11:51:39;2.75;;;1.60;;
61962;SDS011;47927;42.646;23.096;2023-08-01T11:54:06;4.72;;;2.10;;
61962;SDS011;47927;42.646;23.096;2023-08-01T11:56:33;5.53;;;1.60;;
61962;SDS011;47927;42.646;23.096;2023-08-01T11:58:59;3.67;;;1.60;;
61962;SDS011;47927;42.646;23.096;2023-08-01T12:01:25;2.55;;;1.63;;
61962;SDS011;47927;42.646;23.096;2023-08-01T12:03:54;3.47;;;1.80;;
61962;SDS011;47927;42.646;23.096;2023-08-01T12:06:21;5.65;;;1.70;;
61962;SDS011;47927;42.646;23.096;2023-08-01T12:08:50;3.80;;;1.50;;
61962;SDS011;47927;42.646;23.096;2023-08-01T12:11:26;2.90;;;1.92;;
61962;SDS011;47927;42.646;23.096;2023-08-01T12:14:02;2.78;;;1.60;;
61962;SDS011;47927;42.646;23.096;2023-08-01T12:16:29;3.90;;;1.80;;
61962;SDS011;47927;42.646;23.096;2023-08-01T12:18:55;4.18;;;1.77;;
61962;SDS011;47927;42.646;23.096;2023-08-01T12:21:39;3.22;;;1.67;;
61962;SDS011;47927;42.646;23.096;2023-08-01T12:24:05;4.68;;;1.70;;
61962;SDS011;47927;42.646;23.096;2023-08-01T12:26:30;5.25;;;1.70;;
61962;SDS011;47927;42.646;23.096;2023-08-01T12:28:56;2.67;;;1.70;;
61962;SDS011;47927;42.646;23.096;2023-08-01T12:31:22;3.03;;;1.80;;
61962;SDS011;47927;42.646;23.096;2023-08-01T12:33:48;2.80;;;1.70;;
61962;SDS011;47927;42.646;23.096;2023-08-01T12:36:14;3.88;;;1.83;;
61962;SDS011;47927;42.646;23.096;2023-08-01T12:38:41;5.30;;;2.40;;
61962;SDS011;47927;42.646;23.096;2023-08-01T12:41:07;2.45;;;1.58;;
61962;SDS011;47927;42.646;23.096;2023-08-01T12:43:33;2.28;;;1.52;;
61962;SDS011;47927;42.646;23.096;2023-08-01T12:45:58;4.95;;;1.50;;
61962;SDS011;47927;42.646;23.096;2023-08-01T12:48:25;3.38;;;1.70;;
61962;SDS011;47927;42.646;23.096;2023-08-01T12:50:51;4.78;;;1.70;;
61962;SDS011;47927;42.646;23.096;2023-08-01T12:53:17;4.22;;;1.40;;
61962;SDS011;47927;42.646;23.096;2023-08-01T12:55:44;5.00;;;1.48;;
61962;SDS011;47927;42.646;23.096;2023-08-01T12:58:10;4.60;;;1.63;;
61962;SDS011;47927;42.646;23.096;2023-08-01T13:00:36;2.65;;;1.60;;
61962;SDS011;47927;42.646;23.096;2023-08-01T13:03:01;3.63;;;1.77;;
61962;SDS011;47927;42.646;23.096;2023-08-01T13:05:27;3.10;;;1.70;;
61962;SDS011;47927;42.646;23.096;2023-08-01T13:07:53;6.30;;;1.80;;
61962;SDS011;47927;42.646;23.096;2023-08-01T13:10:18;2.55;;;1.60;;
61962;SDS011;47927;42.646;23.096;2023-08-01T13:12:44;3.13;;;1.95;;
61962;SDS011;47927;42.646;23.096;2023-08-01T13:15:09;2.40;;;1.58;;
61962;SDS011;47927;42.646;23.096;2023-08-01T13:17:35;3.10;;;1.67;;
61962;SDS011;47927;42.646;23.096;2023-08-01T13:20:00;4.63;;;1.80;;
61962;SDS011;47927;42.646;23.096;2023-08-01T13:22:26;4.30;;;1.70;;
61962;SDS011;47927;42.646;23.096;2023-08-01T13:24:51;3.33;;;1.80;;
61962;SDS011;47927;42.646;23.096;2023-08-01T13:27:17;3.80;;;1.50;;
61962;SDS011;47927;42.646;23.096;2023-08-01T13:29:42;5.20;;;1.80;;
61962;SDS011;47927;42.646;23.096;2023-08-01T13:32:08;3.75;;;1.85;;
61962;SDS011;47927;42.646;23.096;2023-08-01T13:34:33;2.60;;;1.70;;
61962;SDS011;47927;42.646;23.096;2023-08-01T13:36:59;3.63;;;1.90;;
61962;SDS011;47927;42.646;23.096;2023-08-01T13:39:24;5.43;;;2.20;;
61962;SDS011;47927;42.646;23.096;2023-08-01T13:41:50;3.20;;;2.00;;
61962;SDS011;47927;42.646;23.096;2023-08-01T13:44:15;4.00;;;2.05;;
61962;SDS011;47927;42.646;23.096;2023-08-01T13:46:41;2.83;;;1.80;;
61962;SDS011;47927;42.646;23.096;2023-08-01T13:49:07;3.65;;;1.88;;
61962;SDS011;47927;42.646;23.096;2023-08-01T13:51:33;3.90;;;1.85;;
61962;SDS011;47927;42.646;23.096;2023-08-01T13:53:59;2.05;;;1.48;;
61962;SDS011;47927;42.646;23.096;2023-08-01T13:56:25;2.88;;;1.88;;
61962;SDS011;47927;42.646;23.096;2023-08-01T13:58:51;3.67;;;1.95;;
61962;SDS011;47927;42.646;23.096;2023-08-01T14:01:17;2.40;;;1.70;;
61962;SDS011;47927;42.646;23.096;2023-08-01T14:03:46;5.30;;;1.95;;
61962;SDS011;47927;42.646;23.096;2023-08-01T14:06:12;2.47;;;1.67;;
61962;SDS011;47927;42.646;23.096;2023-08-01T14:08:39;4.85;;;1.60;;
61962;SDS011;47927;42.646;23.096;2023-08-01T14:11:06;2.63;;;1.80;;
61962;SDS011;47927;42.646;23.096;2023-08-01T14:13:33;4.43;;;2.13;;
61962;SDS011;47927;42.646;23.096;2023-08-01T14:15:59;2.65;;;1.77;;
61962;SDS011;47927;42.646;23.096;2023-08-01T14:18:27;3.58;;;2.10;;
61962;SDS011;47927;42.646;23.096;2023-08-01T14:20:53;4.20;;;2.13;;
61962;SDS011;47927;42.646;23.096;2023-08-01T14:23:19;5.55;;;2.20;;
61962;SDS011;47927;42.646;23.096;2023-08-01T14:25:46;3.10;;;2.15;;
61962;SDS011;47927;42.646;23.096;2023-08-01T14:28:11;3.40;;;1.90;;
61962;SDS011;47927;42.646;23.096;2023-08-01T14:30:38;2.72;;;1.80;;
61962;SDS011;47927;42.646;23.096;2023-08-01T14:33:04;2.53;;;1.70;;
61962;SDS011;47927;42.646;23.096;2023-08-01T14:35:32;3.38;;;2.00;;
61962;SDS011;47927;42.646;23.096;2023-08-01T14:37:58;4.78;;;1.90;;
61962;SDS011;47927;42.646;23.096;2023-08-01T14:40:24;7.22;;;2.10;;